This is the latest recevied weather packets stored in our database for station/object SQ2JAD-10. If no packets are shown the sender has not sent any weather packets the latest 10 day(s).
| Time | Temp. | Humidity | Pressure | Rain* | Wind** | Luminosity | Snow |
|---|---|---|---|---|---|---|---|
| 1777518126 | -3.89° C | 41% | 1026.2 hPa | - | - | - | - |
| 1777516325 | -3.33° C | 41% | 1026.1 hPa | - | - | - | - |
| 1777505517 | -1.67° C | 38% | 1025.8 hPa | - | - | - | - |
| 1777467719 | 8.33° C | 33% | 1024 hPa | - | - | - | - |
| 1777455125 | 6.67° C | 36% | 1024.3 hPa | - | - | - | - |
| 1777453323 | 7.22° C | 36% | 1024.1 hPa | - | - | - | - |
| 1777449720 | 7.78° C | 36% | 1024 hPa | - | - | - | - |
| 1777447919 | 11.11° C | 36% | 1024 hPa | - | - | - | - |
| 1777446118 | 12.78° C | 36% | 1024.1 hPa | - | - | - | - |
| 1777438912 | 0° C | 44% | 1023.7 hPa | - | - | - | - |
| 1777379513 | 11.67° C | 36% | 1019.9 hPa | - | - | - | - |
| 1777357912 | 12.22° C | 40% | 1021.7 hPa | - | - | - | - |
| 1777296712 | 12.22° C | 36% | 1016.4 hPa | - | - | - | - |
| 1777293109 | 12.22° C | 36% | 1016.6 hPa | - | - | - | - |
| 1777289507 | 13.33° C | 36% | 1016.9 hPa | - | - | - | - |
| 1777276913 | 11.11° C | 37% | 1017.7 hPa | - | - | - | - |
| 1777264303 | 3.33° C | 41% | 1017.8 hPa | - | - | - | - |
| 1777258914 | 3.33° C | 40% | 1017.5 hPa | - | - | - | - |
| 1777257112 | 3.33° C | 40% | 1017.6 hPa | - | - | - | - |
| 1777249907 | 1.67° C | 40% | 1018.2 hPa | - | - | - | - |
| 1777242702 | 0.56° C | 39% | 1018.5 hPa | - | - | - | - |
| 1777215712 | 10° C | 35% | 1016.8 hPa | - | - | - | - |
| 1777190508 | 8.33° C | 48% | 1013.7 hPa | - | - | - | - |
| 1777154512 | 6.11° C | 48% | 1001.3 hPa | - | - | - | - |
| 1777145505 | 8.89° C | 48% | 1001.2 hPa | - | - | - | - |
* Rain since midnight (hover to see other rain measurements)
** Current wind speed in m/s (hover to see current wind gust speed)